createdAt,value
2022-10-18T00:01:32.538Z,5.85
2022-10-18T00:03:39.949Z,6.43
2022-10-18T00:05:51.891Z,5.75
2022-10-18T00:07:55.268Z,6.63
2022-10-18T00:10:01.174Z,6.95
2022-10-18T00:12:05.057Z,7.13
2022-10-18T00:14:07.684Z,6.47
2022-10-18T00:16:18.319Z,6.22
2022-10-18T00:18:28.061Z,6.20
2022-10-18T00:20:31.598Z,6.65
2022-10-18T00:22:40.914Z,6.40
2022-10-18T00:24:44.152Z,6.18
2022-10-18T00:26:52.181Z,6.50
2022-10-18T00:29:02.623Z,6.10
2022-10-18T00:31:16.424Z,6.65
2022-10-18T00:33:25.620Z,6.32
2022-10-18T00:35:27.718Z,5.85
2022-10-18T00:37:30.104Z,7.03
2022-10-18T00:39:35.262Z,5.80
2022-10-18T00:41:38.317Z,6.00
2022-10-18T00:44:03.536Z,6.20
2022-10-18T00:46:05.466Z,5.97
2022-10-18T00:48:09.840Z,5.82
2022-10-18T00:50:13.679Z,6.20
2022-10-18T00:52:22.550Z,6.00
2022-10-18T00:54:30.126Z,6.13
2022-10-18T00:56:34.406Z,6.18
2022-10-18T00:58:36.594Z,5.82
2022-10-18T01:00:45.615Z,5.80
2022-10-18T01:02:47.952Z,5.43
2022-10-18T01:04:55.555Z,7.05
2022-10-18T01:07:19.251Z,6.13
2022-10-18T01:09:36.916Z,5.60
2022-10-18T01:12:01.506Z,6.65
2022-10-18T01:14:28.929Z,5.68
2022-10-18T01:17:03.074Z,5.53
2022-10-18T01:19:14.588Z,5.35
2022-10-18T01:21:28.512Z,5.57
2022-10-18T01:23:57.255Z,5.85
2022-10-18T01:26:19.509Z,5.85
2022-10-18T01:28:54.413Z,5.07
2022-10-18T01:31:08.507Z,7.03
2022-10-18T01:33:27.874Z,5.65
2022-10-18T01:35:41.123Z,5.50
2022-10-18T01:37:48.598Z,4.78
2022-10-18T01:39:56.740Z,5.90
2022-10-18T01:42:02.091Z,5.40
2022-10-18T01:44:09.753Z,5.20
2022-10-18T01:46:15.351Z,4.38
2022-10-18T01:48:20.498Z,5.13
2022-10-18T01:50:35.352Z,5.07
2022-10-18T01:52:48.264Z,4.47
2022-10-18T01:54:56.478Z,4.75
2022-10-18T01:57:33.322Z,4.63
2022-10-18T02:00:04.297Z,4.35
2022-10-18T02:02:24.617Z,4.97
2022-10-18T02:05:01.577Z,4.82
2022-10-18T02:07:16.822Z,5.03
2022-10-18T02:09:24.578Z,4.97
2022-10-18T02:11:29.693Z,4.80
2022-10-18T02:13:58.043Z,4.60
2022-10-18T02:16:05.054Z,4.90
2022-10-18T02:18:11.779Z,5.15
2022-10-18T02:20:18.003Z,4.40
2022-10-18T02:22:28.292Z,4.88
2022-10-18T02:24:37.069Z,4.97
2022-10-18T02:26:41.069Z,4.85
2022-10-18T02:28:44.007Z,5.43
2022-10-18T02:31:27.309Z,5.25
2022-10-18T02:33:37.022Z,4.93
2022-10-18T02:35:50.181Z,4.68
2022-10-18T02:37:55.462Z,4.65
2022-10-18T02:39:57.689Z,4.65
2022-10-18T02:42:00.123Z,4.75
2022-10-18T02:44:02.072Z,4.45
2022-10-18T02:46:04.372Z,5.03
2022-10-18T02:48:11.412Z,4.60
2022-10-18T02:50:16.439Z,4.32
2022-10-18T02:52:18.250Z,4.05
2022-10-18T02:54:25.392Z,4.85
2022-10-18T02:56:27.294Z,5.03
2022-10-18T02:58:29.518Z,4.22
2022-10-18T03:00:31.461Z,4.50
2022-10-18T03:02:39.138Z,3.88
2022-10-18T03:04:41.099Z,3.90
2022-10-18T03:06:43.002Z,4.70
2022-10-18T03:08:45.109Z,4.68
2022-10-18T03:10:47.410Z,4.45
2022-10-18T03:12:50.218Z,4.22
2022-10-18T03:14:53.049Z,4.40
2022-10-18T03:16:54.973Z,4.03
2022-10-18T03:18:57.909Z,4.80
2022-10-18T03:20:59.856Z,4.55
2022-10-18T03:23:03.555Z,4.47
2022-10-18T03:25:05.789Z,4.20
2022-10-18T03:27:07.681Z,4.00
2022-10-18T03:29:11.748Z,4.25
2022-10-18T03:31:13.821Z,4.20
2022-10-18T03:33:15.675Z,4.18
2022-10-18T03:35:17.552Z,4.07
2022-10-18T03:37:19.378Z,4.07
2022-10-18T03:39:22.339Z,4.60
2022-10-18T03:41:26.231Z,4.85
2022-10-18T03:43:28.138Z,3.95
2022-10-18T03:45:41.274Z,4.47
2022-10-18T03:47:43.080Z,4.05
2022-10-18T03:49:46.005Z,4.30
2022-10-18T03:51:49.828Z,4.00
2022-10-18T03:53:51.749Z,4.30
2022-10-18T03:55:56.919Z,4.10
2022-10-18T03:58:00.865Z,4.45
2022-10-18T04:00:10.217Z,4.10
2022-10-18T04:02:17.848Z,4.40
2022-10-18T04:04:25.893Z,4.28
2022-10-18T04:06:28.809Z,4.20
2022-10-18T04:08:30.767Z,5.28
2022-10-18T04:10:33.777Z,4.70
2022-10-18T04:12:35.731Z,4.68
2022-10-18T04:14:38.772Z,4.45
2022-10-18T04:16:40.722Z,4.88
2022-10-18T04:18:43.124Z,5.18
2022-10-18T04:20:45.055Z,5.53
2022-10-18T04:22:48.386Z,5.88
2022-10-18T04:24:53.488Z,6.22
2022-10-18T04:26:55.405Z,6.05
2022-10-18T04:28:58.357Z,7.00
2022-10-18T04:31:00.334Z,6.03
2022-10-18T04:33:02.258Z,4.50
2022-10-18T04:35:05.164Z,5.72
2022-10-18T04:37:07.053Z,4.90
2022-10-18T04:39:08.989Z,4.90
2022-10-18T04:41:11.885Z,6.13
2022-10-18T04:43:13.979Z,5.70
2022-10-18T04:45:17.050Z,6.40
2022-10-18T04:47:20.271Z,6.35
2022-10-18T04:49:23.258Z,7.18
2022-10-18T04:51:28.717Z,6.35
2022-10-18T04:53:31.674Z,5.32
2022-10-18T04:55:33.596Z,5.22
2022-10-18T04:57:36.526Z,6.03
2022-10-18T04:59:38.626Z,5.97
2022-10-18T05:01:42.630Z,5.40
2022-10-18T05:03:45.596Z,6.00
2022-10-18T05:06:01.244Z,6.45
2022-10-18T05:08:05.775Z,5.07
2022-10-18T05:10:09.229Z,5.45
2022-10-18T05:12:13.222Z,4.65
2022-10-18T05:14:16.292Z,4.63
2022-10-18T05:16:24.146Z,4.55
2022-10-18T05:18:28.245Z,5.00
2022-10-18T05:20:30.331Z,5.13
2022-10-18T05:22:32.500Z,4.63
2022-10-18T05:24:34.750Z,5.20
2022-10-18T05:26:42.793Z,4.65
2022-10-18T05:28:46.720Z,4.88
2022-10-18T05:30:49.670Z,5.60
2022-10-18T05:32:53.750Z,5.10
2022-10-18T05:34:55.980Z,4.95
2022-10-18T05:36:58.794Z,5.65
2022-10-18T05:39:05.518Z,5.25
2022-10-18T05:41:07.671Z,5.10
2022-10-18T05:43:10.650Z,6.10
2022-10-18T05:45:17.480Z,6.55
2022-10-18T05:47:19.360Z,5.60
2022-10-18T05:49:21.410Z,6.20
2022-10-18T05:51:23.352Z,5.88
2022-10-18T05:53:36.229Z,4.38
2022-10-18T05:55:43.336Z,4.43
2022-10-18T05:57:50.577Z,5.05
2022-10-18T05:59:54.446Z,4.13
2022-10-18T06:01:58.506Z,5.10
2022-10-18T06:04:01.714Z,5.22
2022-10-18T06:06:19.440Z,5.63
2022-10-18T06:08:21.682Z,4.43
2022-10-18T06:10:26.190Z,4.88
2022-10-18T06:12:28.184Z,4.80
2022-10-18T06:14:30.116Z,4.82
2022-10-18T06:16:34.196Z,4.90
2022-10-18T06:18:36.720Z,4.93
2022-10-18T06:20:59.135Z,4.85
2022-10-18T06:23:19.056Z,5.90
2022-10-18T06:25:22.040Z,5.10
2022-10-18T06:27:38.042Z,5.25
2022-10-18T06:29:41.705Z,6.03
2022-10-18T06:31:53.778Z,5.10
2022-10-18T06:34:05.542Z,5.07
2022-10-18T06:36:15.623Z,5.30
2022-10-18T06:38:23.867Z,5.00
2022-10-18T06:40:31.124Z,5.25
2022-10-18T06:42:35.282Z,4.90
2022-10-18T06:44:38.598Z,5.55
2022-10-18T06:46:41.941Z,4.82
2022-10-18T06:48:47.916Z,6.05
2022-10-18T06:51:00.703Z,4.75
2022-10-18T06:53:04.328Z,5.25
2022-10-18T06:55:09.254Z,4.88
2022-10-18T06:57:11.121Z,4.63
2022-10-18T06:59:13.045Z,4.78
2022-10-18T07:01:17.129Z,4.97
2022-10-18T07:03:19.022Z,4.93
2022-10-18T07:05:20.928Z,4.90
2022-10-18T07:07:22.961Z,5.00
2022-10-18T07:09:32.616Z,5.40
2022-10-18T07:11:36.651Z,4.80
2022-10-18T07:13:38.537Z,4.80
2022-10-18T07:15:42.598Z,4.80
2022-10-18T07:17:49.363Z,5.15
2022-10-18T07:19:56.724Z,5.07
2022-10-18T07:22:06.542Z,5.13
2022-10-18T07:24:08.533Z,5.43
2022-10-18T07:26:42.787Z,5.47
2022-10-18T07:28:51.151Z,5.07
2022-10-18T07:30:54.946Z,5.60
2022-10-18T07:32:56.863Z,5.38
2022-10-18T07:35:06.290Z,4.97
2022-10-18T07:37:08.343Z,5.20
2022-10-18T07:39:17.398Z,5.30
2022-10-18T07:41:21.902Z,5.10
2022-10-18T07:43:47.183Z,5.15
2022-10-18T07:45:55.569Z,5.10
2022-10-18T07:48:00.920Z,4.65
2022-10-18T07:50:02.956Z,5.03
2022-10-18T07:52:05.127Z,4.93
2022-10-18T07:54:09.546Z,5.00
2022-10-18T07:56:21.159Z,5.25
2022-10-18T07:58:23.435Z,5.50
2022-10-18T08:00:25.569Z,5.32
2022-10-18T08:02:27.606Z,7.05
2022-10-18T08:04:29.616Z,5.68
2022-10-18T08:06:31.723Z,5.00
2022-10-18T08:08:33.619Z,5.43
2022-10-18T08:10:36.478Z,4.75
2022-10-18T08:12:39.496Z,6.20
2022-10-18T08:14:41.588Z,6.10
2022-10-18T08:16:43.786Z,5.78
2022-10-18T08:18:47.529Z,5.18
2022-10-18T08:20:49.478Z,5.80
2022-10-18T08:22:55.445Z,5.75
2022-10-18T08:24:59.716Z,6.50
2022-10-18T08:27:01.734Z,7.68
2022-10-18T08:29:20.975Z,6.80
2022-10-18T08:31:23.930Z,6.25
2022-10-18T08:33:25.846Z,6.03
2022-10-18T08:35:27.955Z,5.75
2022-10-18T08:37:30.346Z,5.75
2022-10-18T08:39:32.576Z,6.05
2022-10-18T08:41:37.339Z,5.93
2022-10-18T08:43:47.428Z,23.55
2022-10-18T08:45:54.514Z,8.13
2022-10-18T08:47:58.109Z,6.55
2022-10-18T08:50:04.694Z,14.27
2022-10-18T08:52:19.468Z,6.82
2022-10-18T08:54:37.901Z,8.85
2022-10-18T08:56:43.332Z,9.15
2022-10-18T08:58:45.404Z,8.73
2022-10-18T09:01:26.072Z,7.78
2022-10-18T09:03:33.729Z,12.23
2022-10-18T09:06:10.488Z,10.13
2022-10-18T09:08:39.990Z,20.65
2022-10-18T09:11:07.970Z,10.70
2022-10-18T09:13:57.277Z,13.02
2022-10-18T09:16:01.358Z,9.07
2022-10-18T09:18:15.031Z,11.88
2022-10-18T09:20:22.921Z,13.45
2022-10-18T09:22:53.230Z,8.85
2022-10-18T09:25:15.109Z,8.77
2022-10-18T09:27:20.468Z,11.32
2022-10-18T09:29:48.879Z,8.23
2022-10-18T09:32:01.585Z,8.73
2022-10-18T09:34:11.931Z,7.68
2022-10-18T09:36:21.998Z,8.15
2022-10-18T09:38:31.171Z,8.32
2022-10-18T09:40:39.125Z,8.40
2022-10-18T09:43:04.430Z,8.73
2022-10-18T09:45:24.528Z,8.35
2022-10-18T09:47:39.620Z,8.68
2022-10-18T09:50:03.058Z,10.65
2022-10-18T09:52:14.128Z,8.80
2022-10-18T09:54:36.167Z,9.55
2022-10-18T09:57:14.173Z,8.48
2022-10-18T09:59:39.198Z,8.18
2022-10-18T10:01:41.204Z,8.77
2022-10-18T10:03:43.286Z,8.50
2022-10-18T10:05:45.428Z,8.68
2022-10-18T10:07:48.996Z,8.85
2022-10-18T10:10:08.535Z,8.05
2022-10-18T10:12:35.300Z,9.60
2022-10-18T10:14:44.288Z,9.10
2022-10-18T10:16:58.548Z,9.13
2022-10-18T10:19:00.510Z,9.43
2022-10-18T10:21:06.120Z,8.27
2022-10-18T10:23:19.791Z,8.77
2022-10-18T10:25:29.264Z,9.65
2022-10-18T10:27:41.186Z,9.88
2022-10-18T10:29:51.678Z,10.30
2022-10-18T10:32:04.469Z,9.77
2022-10-18T10:34:15.087Z,8.68
2022-10-18T10:36:19.683Z,9.23
2022-10-18T10:38:32.544Z,9.43
2022-10-18T10:40:40.639Z,10.13
2022-10-18T10:43:08.850Z,9.93
2022-10-18T10:45:23.937Z,9.63
2022-10-18T10:47:32.794Z,9.70
2022-10-18T10:49:46.378Z,10.40
2022-10-18T10:52:08.247Z,9.50
2022-10-18T10:54:17.305Z,9.85
2022-10-18T10:56:28.083Z,10.13
2022-10-18T10:58:36.266Z,9.60
2022-10-18T11:00:46.141Z,9.73
2022-10-18T11:02:59.291Z,9.95
2022-10-18T11:05:28.798Z,9.85
2022-10-18T11:07:39.816Z,10.00
2022-10-18T11:09:55.034Z,9.40
2022-10-18T11:12:13.870Z,9.85
2022-10-18T11:14:27.226Z,14.80
2022-10-18T11:16:55.336Z,11.43
2022-10-18T11:18:59.049Z,10.90
2022-10-18T11:21:08.279Z,19.35
2022-10-18T11:23:16.208Z,13.25
2022-10-18T11:25:18.424Z,13.80
2022-10-18T11:27:29.461Z,10.40
2022-10-18T11:29:37.141Z,12.18
2022-10-18T11:31:55.432Z,15.52
2022-10-18T11:34:40.392Z,12.60
2022-10-18T11:37:31.065Z,11.85
2022-10-18T11:39:36.629Z,10.45
2022-10-18T11:41:44.527Z,12.23
2022-10-18T11:44:02.782Z,28.65
2022-10-18T11:46:22.344Z,12.50
2022-10-18T11:48:58.056Z,13.48
2022-10-18T11:51:56.311Z,12.45
2022-10-18T11:54:31.129Z,13.25
2022-10-18T11:56:48.317Z,11.98
2022-10-18T11:59:14.358Z,12.27
2022-10-18T12:01:35.937Z,12.60
2022-10-18T12:06:06.785Z,12.18
2022-10-18T12:08:34.796Z,11.70
2022-10-18T12:10:52.521Z,11.48
2022-10-18T12:13:02.367Z,11.50
2022-10-18T12:15:14.614Z,11.15
2022-10-18T12:17:42.862Z,11.75
2022-10-18T12:19:52.286Z,10.88
2022-10-18T12:21:57.814Z,11.07
2022-10-18T12:24:20.290Z,12.43
2022-10-18T12:26:23.104Z,11.63
2022-10-18T12:28:34.073Z,11.30
2022-10-18T12:31:08.256Z,10.07
2022-10-18T12:33:27.782Z,11.30
2022-10-18T12:35:35.426Z,10.73
2022-10-18T12:37:54.535Z,10.60
2022-10-18T12:40:15.771Z,10.98
2022-10-18T12:42:31.496Z,10.70
2022-10-18T12:44:35.388Z,10.38
2022-10-18T12:47:05.604Z,11.40
2022-10-18T12:49:13.010Z,12.70
2022-10-18T12:51:20.744Z,11.32
2022-10-18T12:53:28.199Z,12.93
2022-10-18T12:55:33.878Z,11.63
2022-10-18T12:57:54.137Z,11.07
2022-10-18T12:59:56.149Z,11.02
2022-10-18T13:02:00.641Z,11.32
2022-10-18T13:04:02.793Z,11.05
2022-10-18T13:06:06.789Z,11.25
2022-10-18T13:08:27.863Z,10.88
2022-10-18T13:10:35.474Z,11.05
2022-10-18T13:13:13.229Z,11.07
2022-10-18T13:15:37.780Z,11.05
2022-10-18T13:17:42.800Z,11.70
2022-10-18T13:20:25.564Z,11.75
2022-10-18T13:22:44.113Z,11.13
2022-10-18T13:25:25.008Z,11.27
2022-10-18T13:27:45.612Z,12.17
2022-10-18T13:30:00.702Z,12.48
2022-10-18T13:32:07.834Z,11.73
2022-10-18T13:34:23.058Z,11.75
2022-10-18T13:36:26.504Z,12.63
2022-10-18T13:38:46.684Z,11.95
2022-10-18T13:41:05.233Z,12.55
2022-10-18T13:43:48.933Z,11.30
2022-10-18T13:45:56.162Z,12.65
2022-10-18T13:48:27.868Z,11.85
2022-10-18T13:53:15.625Z,12.23
2022-10-18T13:55:39.599Z,12.30
2022-10-18T13:57:45.944Z,14.50
2022-10-18T14:00:24.406Z,13.05
2022-10-18T14:03:31.996Z,13.02
2022-10-18T14:06:06.715Z,13.18
2022-10-18T14:08:17.701Z,13.05
2022-10-18T14:11:04.188Z,13.10
2022-10-18T14:13:14.511Z,13.38
2022-10-18T14:15:24.992Z,12.30
2022-10-18T14:17:49.587Z,12.30
2022-10-18T14:19:58.650Z,12.30
2022-10-18T14:22:11.912Z,12.18
2022-10-18T14:24:22.578Z,12.70
2022-10-18T14:26:28.853Z,11.45
2022-10-18T14:28:58.491Z,12.60
2022-10-18T14:31:12.100Z,12.35
2022-10-18T14:33:46.052Z,12.32
2022-10-18T14:36:00.066Z,12.25
2022-10-18T14:38:03.977Z,12.27
2022-10-18T14:40:06.194Z,12.05
2022-10-18T14:42:21.328Z,12.07
2022-10-18T14:44:28.998Z,12.80
2022-10-18T14:46:33.070Z,11.85
2022-10-18T14:48:35.026Z,10.73
2022-10-18T14:50:38.095Z,9.95
2022-10-18T14:52:41.102Z,10.07
2022-10-18T14:54:48.929Z,10.63
2022-10-18T14:56:51.969Z,11.27
2022-10-18T14:58:57.488Z,11.05
2022-10-18T15:00:59.721Z,11.15
2022-10-18T15:03:04.326Z,11.43
2022-10-18T15:05:25.181Z,10.20
2022-10-18T15:07:31.458Z,10.43
2022-10-18T15:09:36.744Z,10.98
2022-10-18T15:11:41.810Z,11.18
2022-10-18T15:13:54.338Z,11.20
2022-10-18T15:15:56.826Z,11.15
2022-10-18T15:17:59.940Z,11.60
2022-10-18T15:20:26.427Z,11.75
2022-10-18T15:22:32.080Z,11.57
2022-10-18T15:24:37.936Z,10.88
2022-10-18T15:26:46.828Z,8.57
2022-10-18T15:28:54.046Z,6.10
2022-10-18T15:31:02.236Z,5.80
2022-10-18T15:33:09.986Z,4.65
2022-10-18T15:35:23.484Z,3.80
2022-10-18T15:37:30.815Z,3.60
2022-10-18T15:39:42.814Z,3.35
2022-10-18T15:42:02.222Z,3.78
2022-10-18T15:44:23.870Z,3.33
2022-10-18T15:46:32.394Z,3.25
2022-10-18T15:48:39.878Z,2.67
2022-10-18T15:50:48.179Z,2.95
2022-10-18T15:52:50.116Z,3.42
2022-10-18T15:54:55.250Z,3.75
2022-10-18T15:56:58.552Z,3.72
2022-10-18T15:59:12.808Z,2.83
2022-10-18T16:01:20.522Z,3.13
2022-10-18T16:03:24.364Z,2.83
2022-10-18T16:05:27.432Z,2.95
2022-10-18T16:07:29.385Z,3.17
2022-10-18T16:09:31.328Z,2.60
2022-10-18T16:11:33.348Z,3.45
2022-10-18T16:13:35.283Z,2.97
2022-10-18T16:15:37.203Z,3.40
2022-10-18T16:17:39.161Z,3.60
2022-10-18T16:19:41.073Z,3.20
2022-10-18T16:21:42.974Z,3.30
2022-10-18T16:23:45.086Z,4.20
2022-10-18T16:25:47.185Z,3.97
2022-10-18T16:27:51.080Z,3.65
2022-10-18T16:29:52.934Z,3.67
2022-10-18T16:31:58.347Z,4.18
2022-10-18T16:34:00.902Z,4.10
2022-10-18T16:36:04.987Z,4.07
2022-10-18T16:38:24.648Z,3.78
2022-10-18T16:40:26.920Z,4.07
2022-10-18T16:42:28.855Z,4.45
2022-10-18T16:44:30.786Z,3.90
2022-10-18T16:46:34.868Z,4.05
2022-10-18T16:48:36.783Z,4.63
2022-10-18T16:50:38.677Z,4.53
2022-10-18T16:52:40.596Z,4.50
2022-10-18T16:54:42.582Z,4.22
2022-10-18T16:56:44.840Z,4.40
2022-10-18T16:58:47.074Z,4.90
2022-10-18T17:00:49.864Z,4.50
2022-10-18T17:02:52.060Z,4.70
2022-10-18T17:04:53.979Z,5.45
2022-10-18T17:06:57.746Z,6.25
2022-10-18T17:09:00.254Z,6.18
2022-10-18T17:11:02.580Z,6.85
2022-10-18T17:13:06.797Z,7.05
2022-10-18T17:15:09.505Z,6.40
2022-10-18T17:17:13.515Z,7.38
2022-10-18T17:19:16.071Z,6.28
2022-10-18T17:21:19.992Z,5.18
2022-10-18T17:23:22.467Z,4.35
2022-10-18T17:25:24.999Z,4.63
2022-10-18T17:27:27.650Z,4.43
2022-10-18T17:29:29.978Z,3.65
2022-10-18T17:31:33.290Z,3.42
2022-10-18T17:33:36.114Z,3.20
2022-10-18T17:35:39.491Z,3.50
2022-10-18T17:37:45.313Z,2.70
2022-10-18T17:39:48.538Z,2.88
2022-10-18T17:41:51.365Z,3.15
2022-10-18T17:43:54.011Z,2.90
2022-10-18T17:45:56.902Z,2.78
2022-10-18T17:47:59.150Z,2.92
2022-10-18T17:50:01.227Z,3.00
2022-10-18T17:52:06.902Z,2.90
2022-10-18T17:54:10.146Z,2.88
2022-10-18T17:56:13.729Z,3.10
2022-10-18T17:58:15.760Z,3.17
2022-10-18T18:00:18.664Z,3.10
2022-10-18T18:02:21.379Z,2.90
2022-10-18T18:04:24.648Z,2.80
2022-10-18T18:06:33.979Z,2.80
2022-10-18T18:08:38.025Z,2.60
2022-10-18T18:10:42.019Z,2.67
2022-10-18T18:12:46.040Z,2.20
2022-10-18T18:14:48.506Z,2.35
2022-10-18T18:16:51.579Z,2.67
2022-10-18T18:18:56.493Z,2.20
2022-10-18T18:20:58.896Z,2.28
2022-10-18T18:23:03.418Z,2.72
2022-10-18T18:25:06.326Z,3.00
2022-10-18T18:27:08.726Z,2.40
2022-10-18T18:29:13.371Z,2.00
2022-10-18T18:31:24.209Z,2.70
2022-10-18T18:33:26.843Z,2.38
2022-10-18T18:35:30.734Z,3.17
2022-10-18T18:37:33.290Z,3.83
2022-10-18T18:39:36.788Z,5.00
2022-10-18T18:41:39.057Z,4.93
2022-10-18T18:43:47.390Z,4.13
2022-10-18T18:45:53.807Z,4.55
2022-10-18T18:47:56.243Z,3.90
2022-10-18T18:49:58.556Z,3.35
2022-10-18T18:52:00.996Z,3.88
2022-10-18T18:54:03.969Z,4.85
2022-10-18T18:56:11.484Z,4.68
2022-10-18T18:58:14.490Z,4.53
2022-10-18T19:00:18.204Z,4.45
2022-10-18T19:02:20.701Z,4.50
2022-10-18T19:04:23.060Z,3.38
2022-10-18T19:06:32.018Z,3.97
2022-10-18T19:08:39.178Z,3.30
2022-10-18T19:10:42.047Z,3.10
2022-10-18T19:12:43.977Z,2.92
2022-10-18T19:14:47.229Z,3.58
2022-10-18T19:17:01.985Z,3.25
2022-10-18T19:19:19.980Z,3.70
2022-10-18T19:21:23.992Z,3.50
2022-10-18T19:25:30.743Z,4.05
2022-10-18T19:27:35.909Z,4.47
2022-10-18T19:29:43.076Z,4.00
2022-10-18T19:31:46.432Z,3.80
2022-10-18T19:33:59.338Z,3.03
2022-10-18T19:36:02.634Z,3.40
2022-10-18T19:38:07.649Z,3.00
2022-10-18T19:40:18.210Z,3.13
2022-10-18T19:42:26.097Z,2.90
2022-10-18T19:44:32.917Z,3.00
2022-10-18T19:46:41.114Z,2.90
2022-10-18T19:48:43.580Z,3.17
2022-10-18T19:50:48.277Z,2.78
2022-10-18T19:52:50.583Z,2.80
2022-10-18T19:54:56.579Z,3.10
2022-10-18T19:56:58.745Z,3.47
2022-10-18T19:59:00.844Z,3.00
2022-10-18T20:01:04.824Z,3.30
2022-10-18T20:03:07.958Z,3.05
2022-10-18T20:05:10.654Z,3.05
2022-10-18T20:07:13.737Z,2.63
2022-10-18T20:09:19.523Z,3.03
2022-10-18T20:11:25.356Z,2.90
2022-10-18T20:13:27.479Z,2.60
2022-10-18T20:15:29.809Z,2.60
2022-10-18T20:17:32.754Z,2.65
2022-10-18T20:19:35.420Z,2.58
2022-10-18T20:21:37.951Z,3.10
2022-10-18T20:23:42.330Z,3.88
2022-10-18T20:25:56.017Z,3.50
2022-10-18T20:27:57.958Z,3.03
2022-10-18T20:29:59.897Z,3.30
2022-10-18T20:32:01.979Z,3.08
2022-10-18T20:34:06.847Z,3.88
2022-10-18T20:36:10.286Z,3.53
2022-10-18T20:38:12.833Z,4.07
2022-10-18T20:40:16.335Z,4.40
2022-10-18T20:42:18.304Z,4.63
2022-10-18T20:44:22.632Z,4.85
2022-10-18T20:46:25.337Z,5.70
2022-10-18T20:48:28.671Z,5.20
2022-10-18T20:50:30.537Z,5.38
2022-10-18T20:52:32.408Z,5.50
2022-10-18T20:54:37.384Z,5.38
2022-10-18T20:56:39.580Z,5.45
2022-10-18T20:58:43.807Z,4.57
2022-10-18T21:00:45.718Z,5.25
2022-10-18T21:02:47.651Z,5.40
2022-10-18T21:04:49.632Z,5.30
2022-10-18T21:06:54.373Z,4.70
2022-10-18T21:09:06.847Z,5.13
2022-10-18T21:11:09.686Z,5.55
2022-10-18T21:13:12.616Z,6.55
2022-10-18T21:15:15.091Z,5.57
2022-10-18T21:17:19.547Z,5.63
2022-10-18T21:19:24.346Z,5.88
2022-10-18T21:21:27.408Z,5.47
2022-10-18T21:23:31.423Z,5.40
2022-10-18T21:25:33.333Z,5.28
2022-10-18T21:27:35.410Z,5.13
2022-10-18T21:29:37.312Z,5.55
2022-10-18T21:31:41.656Z,5.32
2022-10-18T21:33:45.077Z,5.65
2022-10-18T21:35:46.958Z,5.53
2022-10-18T21:37:49.986Z,5.32
2022-10-18T21:39:52.026Z,5.97
2022-10-18T21:41:53.952Z,6.13
2022-10-18T21:43:55.857Z,6.07
2022-10-18T21:45:59.872Z,6.20
2022-10-18T21:48:03.643Z,6.35
2022-10-18T21:50:05.844Z,6.57
2022-10-18T21:52:07.717Z,6.07
2022-10-18T21:54:14.177Z,6.25
2022-10-18T21:56:19.386Z,6.10
2022-10-18T21:58:21.299Z,5.95
2022-10-18T22:00:23.234Z,6.18
2022-10-18T22:02:25.344Z,6.80
2022-10-18T22:04:28.570Z,6.45
2022-10-18T22:08:38.224Z,6.28
2022-10-18T22:10:40.867Z,6.10
2022-10-18T22:12:42.782Z,7.65
2022-10-18T22:14:44.814Z,6.28
2022-10-18T22:16:49.206Z,7.03
2022-10-18T22:18:56.975Z,7.05
2022-10-18T22:21:07.702Z,6.60
2022-10-18T22:23:12.678Z,6.40
2022-10-18T22:25:14.569Z,6.90
2022-10-18T22:27:16.369Z,6.43
2022-10-18T22:29:20.641Z,6.28
2022-10-18T22:31:25.237Z,6.95
2022-10-18T22:33:28.310Z,6.45
2022-10-18T22:35:31.968Z,6.57
2022-10-18T22:37:33.980Z,6.97
2022-10-18T22:39:36.136Z,6.28
2022-10-18T22:41:37.986Z,6.65
2022-10-18T22:43:40.913Z,6.72
2022-10-18T22:45:42.748Z,6.85
2022-10-18T22:47:44.679Z,6.18
2022-10-18T22:49:46.505Z,6.60
2022-10-18T22:51:48.466Z,6.22
2022-10-18T22:53:50.482Z,6.40
2022-10-18T22:55:52.855Z,5.95
2022-10-18T22:57:56.014Z,6.03
2022-10-18T22:59:57.810Z,6.45
2022-10-18T23:02:00.789Z,6.97
2022-10-18T23:04:04.170Z,6.22
2022-10-18T23:06:19.252Z,6.30
2022-10-18T23:08:21.094Z,6.93
2022-10-18T23:10:22.984Z,6.50
2022-10-18T23:12:24.864Z,6.10
2022-10-18T23:14:26.809Z,6.25
2022-10-18T23:16:29.704Z,6.07
2022-10-18T23:18:33.249Z,6.55
2022-10-18T23:20:35.198Z,6.57
2022-10-18T23:22:37.154Z,5.80
2022-10-18T23:24:39.996Z,6.50
2022-10-18T23:26:41.821Z,6.65
2022-10-18T23:28:45.591Z,6.32
2022-10-18T23:30:47.569Z,5.90
2022-10-18T23:32:49.521Z,6.38
2022-10-18T23:34:52.404Z,6.40
2022-10-18T23:36:54.303Z,6.10
2022-10-18T23:38:56.224Z,6.30
2022-10-18T23:40:58.303Z,5.95
2022-10-18T23:43:00.134Z,6.00
2022-10-18T23:45:03.609Z,6.38
2022-10-18T23:47:05.527Z,6.07
2022-10-18T23:49:09.318Z,6.15
2022-10-18T23:51:11.748Z,6.00
2022-10-18T23:53:13.840Z,5.80
2022-10-18T23:55:15.771Z,5.68
2022-10-18T23:57:17.633Z,5.80
2022-10-18T23:59:19.467Z,6.22
